sensor_id;sensor_type;location;lat;lon;timestamp;P1;durP1;ratioP1;P2;durP2;ratioP2
20884;SDS011;10602;48.000;9.654;2023-05-29T05:00:18;11.43;;;4.90;;
20884;SDS011;10602;48.000;9.654;2023-05-29T05:02:46;6.63;;;4.57;;
20884;SDS011;10602;48.000;9.654;2023-05-29T05:05:14;7.97;;;5.13;;
20884;SDS011;10602;48.000;9.654;2023-05-29T05:07:41;6.97;;;4.77;;
20884;SDS011;10602;48.000;9.654;2023-05-29T05:10:09;9.77;;;4.80;;
20884;SDS011;10602;48.000;9.654;2023-05-29T05:12:37;6.30;;;4.73;;
20884;SDS011;10602;48.000;9.654;2023-05-29T05:15:05;8.67;;;4.90;;
20884;SDS011;10602;48.000;9.654;2023-05-29T05:17:33;6.67;;;4.67;;
20884;SDS011;10602;48.000;9.654;2023-05-29T05:20:01;5.73;;;4.23;;
20884;SDS011;10602;48.000;9.654;2023-05-29T05:22:30;6.30;;;4.43;;
20884;SDS011;10602;48.000;9.654;2023-05-29T05:24:58;6.90;;;4.50;;
20884;SDS011;10602;48.000;9.654;2023-05-29T05:27:26;6.27;;;4.63;;
20884;SDS011;10602;48.000;9.654;2023-05-29T05:29:55;7.30;;;4.50;;
20884;SDS011;10602;48.000;9.654;2023-05-29T05:32:23;8.50;;;4.53;;
20884;SDS011;10602;48.000;9.654;2023-05-29T05:34:50;8.43;;;5.17;;
20884;SDS011;10602;48.000;9.654;2023-05-29T05:37:18;8.23;;;4.60;;
20884;SDS011;10602;48.000;9.654;2023-05-29T05:39:47;7.77;;;5.00;;
20884;SDS011;10602;48.000;9.654;2023-05-29T05:42:16;6.13;;;4.53;;
20884;SDS011;10602;48.000;9.654;2023-05-29T05:44:44;7.53;;;4.67;;
20884;SDS011;10602;48.000;9.654;2023-05-29T07:41:29;6.53;;;5.03;;
20884;SDS011;10602;48.000;9.654;2023-05-29T07:43:56;7.77;;;5.17;;
20884;SDS011;10602;48.000;9.654;2023-05-29T07:46:24;7.77;;;4.97;;
20884;SDS011;10602;48.000;9.654;2023-05-29T07:48:51;8.97;;;5.13;;
20884;SDS011;10602;48.000;9.654;2023-05-29T07:51:19;6.43;;;5.17;;
20884;SDS011;10602;48.000;9.654;2023-05-29T07:53:47;7.20;;;5.43;;
20884;SDS011;10602;48.000;9.654;2023-05-29T07:56:14;7.83;;;5.47;;
20884;SDS011;10602;48.000;9.654;2023-05-29T07:58:42;6.20;;;4.80;;
20884;SDS011;10602;48.000;9.654;2023-05-29T08:01:10;6.43;;;5.20;;
20884;SDS011;10602;48.000;9.654;2023-05-29T08:03:38;9.57;;;5.37;;
20884;SDS011;10602;48.000;9.654;2023-05-29T08:06:07;9.47;;;5.73;;
20884;SDS011;10602;48.000;9.654;2023-05-29T08:08:42;6.97;;;5.00;;
20884;SDS011;10602;48.000;9.654;2023-05-29T08:11:19;10.13;;;5.57;;
20884;SDS011;10602;48.000;9.654;2023-05-29T08:13:48;9.13;;;5.80;;
20884;SDS011;10602;48.000;9.654;2023-05-29T08:16:16;7.63;;;5.37;;
20884;SDS011;10602;48.000;9.654;2023-05-29T08:18:46;8.40;;;5.47;;
20884;SDS011;10602;48.000;9.654;2023-05-29T08:21:16;6.67;;;4.63;;
20884;SDS011;10602;48.000;9.654;2023-05-29T08:23:43;7.17;;;4.73;;
20884;SDS011;10602;48.000;9.654;2023-05-29T08:26:11;6.17;;;5.07;;
20884;SDS011;10602;48.000;9.654;2023-05-29T08:28:39;6.27;;;4.90;;
20884;SDS011;10602;48.000;9.654;2023-05-29T08:31:06;7.23;;;5.03;;
20884;SDS011;10602;48.000;9.654;2023-05-29T08:33:34;7.50;;;5.20;;
20884;SDS011;10602;48.000;9.654;2023-05-29T08:36:02;7.17;;;4.83;;
20884;SDS011;10602;48.000;9.654;2023-05-29T08:38:30;6.07;;;5.27;;
20884;SDS011;10602;48.000;9.654;2023-05-29T08:43:34;6.10;;;5.07;;
20884;SDS011;10602;48.000;9.654;2023-05-29T08:46:03;6.50;;;5.20;;
20884;SDS011;10602;48.000;9.654;2023-05-29T08:48:31;5.73;;;5.10;;
20884;SDS011;10602;48.000;9.654;2023-05-29T08:50:58;6.60;;;4.87;;
20884;SDS011;10602;48.000;9.654;2023-05-29T08:53:29;8.77;;;4.80;;
20884;SDS011;10602;48.000;9.654;2023-05-29T08:55:57;6.33;;;5.00;;
20884;SDS011;10602;48.000;9.654;2023-05-29T08:58:25;6.80;;;5.50;;
20884;SDS011;10602;48.000;9.654;2023-05-29T09:00:54;6.20;;;5.13;;
20884;SDS011;10602;48.000;9.654;2023-05-29T09:03:21;5.57;;;4.63;;
20884;SDS011;10602;48.000;9.654;2023-05-29T09:05:50;7.47;;;5.10;;
20884;SDS011;10602;48.000;9.654;2023-05-29T09:08:22;5.63;;;4.63;;
20884;SDS011;10602;48.000;9.654;2023-05-29T09:10:51;6.60;;;4.87;;
20884;SDS011;10602;48.000;9.654;2023-05-29T23:27:14;5.40;;;4.03;;
20884;SDS011;10602;48.000;9.654;2023-05-29T23:29:41;4.80;;;3.77;;
20884;SDS011;10602;48.000;9.654;2023-05-29T23:32:09;6.73;;;4.20;;
20884;SDS011;10602;48.000;9.654;2023-05-29T23:34:36;7.20;;;4.53;;
20884;SDS011;10602;48.000;9.654;2023-05-29T23:37:05;6.10;;;4.63;;
20884;SDS011;10602;48.000;9.654;2023-05-29T23:39:32;6.37;;;3.90;;
20884;SDS011;10602;48.000;9.654;2023-05-29T23:42:00;6.73;;;3.73;;
20884;SDS011;10602;48.000;9.654;2023-05-29T23:44:28;5.70;;;3.17;;
20884;SDS011;10602;48.000;9.654;2023-05-29T23:46:57;5.50;;;3.13;;
20884;SDS011;10602;48.000;9.654;2023-05-29T23:49:24;5.00;;;3.20;;
20884;SDS011;10602;48.000;9.654;2023-05-29T23:51:54;5.27;;;3.23;;
20884;SDS011;10602;48.000;9.654;2023-05-29T23:54:21;5.47;;;3.20;;
20884;SDS011;10602;48.000;9.654;2023-05-29T23:56:49;4.57;;;3.37;;
20884;SDS011;10602;48.000;9.654;2023-05-29T23:59:17;5.67;;;3.77;;
